createdAt,value
2019-05-09T00:01:19.623Z,11.60
2019-05-09T00:03:47.406Z,11.60
2019-05-09T00:06:15.947Z,11.60
2019-05-09T00:08:44.549Z,11.70
2019-05-09T00:11:14.474Z,11.70
2019-05-09T00:13:44.224Z,11.70
2019-05-09T00:16:14.195Z,11.70
2019-05-09T00:18:44.110Z,11.70
2019-05-09T00:21:20.997Z,11.60
2019-05-09T00:23:50.183Z,11.60
2019-05-09T00:26:18.697Z,11.70
2019-05-09T00:28:48.936Z,11.70
2019-05-09T00:31:28.451Z,11.70
2019-05-09T00:33:59.289Z,11.70
2019-05-09T00:36:28.439Z,11.60
2019-05-09T00:38:57.015Z,11.60
2019-05-09T00:41:25.559Z,11.60
2019-05-09T00:43:56.014Z,11.60
2019-05-09T00:46:26.763Z,11.50
2019-05-09T00:48:57.248Z,11.50
2019-05-09T00:51:26.117Z,11.40
2019-05-09T00:53:54.626Z,11.40
2019-05-09T00:56:23.928Z,11.40
2019-05-09T00:58:53.709Z,11.40
2019-05-09T01:01:24.024Z,11.40
2019-05-09T01:03:53.854Z,11.40
2019-05-09T01:06:23.878Z,11.40
2019-05-09T01:08:53.796Z,11.40
2019-05-09T01:11:24.387Z,11.40
2019-05-09T01:13:54.429Z,11.30
2019-05-09T01:16:24.726Z,11.30
2019-05-09T01:18:54.638Z,11.30
2019-05-09T01:21:24.191Z,11.30
2019-05-09T01:23:54.000Z,11.30
2019-05-09T01:26:23.997Z,11.30
2019-05-09T01:28:54.099Z,11.30
2019-05-09T01:31:24.242Z,11.30
2019-05-09T01:34:00.889Z,11.30
2019-05-09T01:36:47.728Z,11.30
2019-05-09T01:39:16.987Z,11.40
2019-05-09T01:41:44.790Z,11.30
2019-05-09T01:44:13.805Z,11.30
2019-05-09T01:46:43.483Z,11.30
2019-05-09T01:49:13.842Z,11.30
2019-05-09T01:51:44.475Z,11.40
2019-05-09T01:54:14.902Z,11.30
2019-05-09T01:56:44.061Z,11.30
2019-05-09T01:59:13.695Z,11.30
2019-05-09T02:01:43.422Z,11.30
2019-05-09T02:04:13.757Z,11.30
2019-05-09T02:06:44.044Z,11.30
2019-05-09T02:09:14.013Z,11.30
2019-05-09T02:11:45.707Z,11.30
2019-05-09T02:14:16.715Z,11.30
2019-05-09T02:16:53.854Z,11.30
2019-05-09T02:19:24.655Z,11.20
2019-05-09T02:21:53.871Z,11.20
2019-05-09T02:24:23.419Z,11.10
2019-05-09T02:26:53.318Z,11.20
2019-05-09T02:29:23.240Z,11.10
2019-05-09T02:31:54.621Z,11.10
2019-05-09T02:34:24.905Z,11.10
2019-05-09T02:36:54.344Z,11.10
2019-05-09T02:39:22.153Z,11.10
2019-05-09T02:42:04.790Z,11.10
2019-05-09T02:44:21.543Z,11.10
2019-05-09T02:46:58.887Z,11.10
2019-05-09T02:49:28.834Z,11.00
2019-05-09T02:51:59.332Z,11.00
2019-05-09T02:54:29.792Z,11.00
2019-05-09T02:56:59.469Z,10.90
2019-05-09T02:59:31.885Z,10.90
2019-05-09T03:02:02.237Z,10.90
2019-05-09T03:04:31.496Z,10.90
2019-05-09T03:07:00.001Z,10.90
2019-05-09T03:09:28.953Z,10.90
2019-05-09T03:11:59.248Z,10.80
2019-05-09T03:14:29.072Z,10.80
2019-05-09T03:16:58.715Z,10.80
2019-05-09T03:19:29.678Z,10.80
2019-05-09T03:22:00.086Z,10.80
2019-05-09T03:24:29.263Z,10.80
2019-05-09T03:26:59.532Z,10.80
2019-05-09T03:29:29.982Z,10.70
2019-05-09T03:32:00.239Z,10.80
2019-05-09T03:34:30.338Z,10.70
2019-05-09T03:36:59.594Z,10.70
2019-05-09T03:39:27.716Z,10.70
2019-05-09T03:41:57.379Z,10.70
2019-05-09T03:44:28.307Z,10.70
2019-05-09T03:47:02.366Z,10.70
2019-05-09T03:49:31.581Z,10.70
2019-05-09T03:51:59.399Z,10.70
2019-05-09T03:54:28.386Z,10.70
2019-05-09T03:57:01.788Z,10.70
2019-05-09T03:59:30.969Z,10.70
2019-05-09T04:01:59.154Z,10.70
2019-05-09T04:04:28.249Z,10.70
2019-05-09T04:06:58.199Z,10.80
2019-05-09T04:09:27.599Z,10.80
2019-05-09T04:11:55.410Z,10.80
2019-05-09T04:14:28.066Z,10.80
2019-05-09T04:16:57.502Z,10.80
2019-05-09T04:19:27.609Z,10.80
2019-05-09T04:21:57.542Z,10.70
2019-05-09T04:24:28.533Z,10.70
2019-05-09T04:27:07.665Z,10.80
2019-05-09T04:29:37.413Z,10.80
2019-05-09T04:32:07.980Z,10.80
2019-05-09T04:34:38.043Z,10.80
2019-05-09T04:37:08.482Z,10.80
2019-05-09T04:39:40.611Z,10.90
2019-05-09T04:42:09.395Z,11.00
2019-05-09T04:44:43.162Z,11.10
2019-05-09T04:47:12.336Z,11.10
2019-05-09T04:49:45.024Z,11.20
2019-05-09T04:52:10.405Z,11.40
2019-05-09T04:54:38.974Z,11.40
2019-05-09T04:57:08.030Z,11.50
2019-05-09T04:59:37.485Z,11.60
2019-05-09T05:02:14.142Z,11.70
2019-05-09T05:04:43.420Z,11.70
2019-05-09T05:07:13.190Z,11.80
2019-05-09T05:09:42.352Z,11.70
2019-05-09T05:12:10.207Z,11.60
2019-05-09T05:14:39.166Z,11.60
2019-05-09T05:17:10.897Z,11.60
2019-05-09T05:19:38.307Z,11.70
2019-05-09T05:22:11.758Z,11.70
2019-05-09T05:24:48.906Z,11.70
2019-05-09T05:27:18.822Z,11.80
2019-05-09T05:29:48.247Z,11.80
2019-05-09T05:32:17.911Z,11.80
2019-05-09T05:35:03.472Z,11.90
2019-05-09T05:37:32.715Z,11.90
2019-05-09T05:40:00.467Z,11.90
2019-05-09T05:42:29.322Z,11.90
2019-05-09T05:44:58.400Z,11.90
2019-05-09T05:47:35.220Z,11.90
2019-05-09T05:50:05.055Z,11.90
2019-05-09T05:52:34.211Z,11.90
2019-05-09T05:55:03.289Z,11.90
2019-05-09T05:57:32.392Z,11.90
2019-05-09T06:00:00.220Z,11.90
2019-05-09T06:02:29.109Z,12.00
2019-05-09T06:04:57.912Z,12.10
2019-05-09T06:07:28.507Z,12.10
2019-05-09T06:09:57.739Z,12.10
2019-05-09T06:12:27.639Z,12.20
2019-05-09T06:14:58.172Z,12.20
2019-05-09T06:17:28.628Z,12.20
2019-05-09T06:19:58.874Z,12.30
2019-05-09T06:22:28.327Z,12.30
2019-05-09T06:24:58.287Z,12.40
2019-05-09T06:27:27.674Z,12.30
2019-05-09T06:29:58.174Z,12.40
2019-05-09T06:32:27.958Z,12.40
2019-05-09T06:34:57.781Z,12.40
2019-05-09T06:37:27.791Z,12.40
2019-05-09T06:39:58.270Z,12.40
2019-05-09T06:42:28.678Z,12.50
2019-05-09T06:45:02.576Z,12.60
2019-05-09T06:47:33.452Z,12.60
2019-05-09T06:50:04.357Z,12.70
2019-05-09T06:52:33.551Z,12.70
2019-05-09T06:55:01.349Z,12.80
2019-05-09T06:57:30.235Z,12.80
2019-05-09T06:59:58.183Z,12.80
2019-05-09T07:02:34.724Z,12.90
2019-05-09T07:05:09.448Z,12.90
2019-05-09T07:07:40.196Z,12.90
2019-05-09T07:10:10.200Z,12.90
2019-05-09T07:12:39.310Z,12.90
2019-05-09T07:15:08.846Z,12.90
2019-05-09T07:17:38.697Z,12.90
2019-05-09T07:20:08.631Z,13.00
2019-05-09T07:22:48.378Z,12.90
2019-05-09T07:25:19.209Z,12.90
2019-05-09T07:27:48.460Z,12.90
2019-05-09T07:30:20.862Z,12.90
2019-05-09T07:33:03.268Z,12.90
2019-05-09T07:35:32.430Z,12.90
2019-05-09T07:38:00.233Z,12.90
2019-05-09T07:40:30.716Z,12.80
2019-05-09T07:43:00.103Z,12.80
2019-05-09T07:45:28.223Z,12.70
2019-05-09T07:47:58.357Z,12.60
2019-05-09T07:50:27.895Z,12.50
2019-05-09T07:52:57.957Z,12.50
2019-05-09T07:55:27.448Z,12.60
2019-05-09T07:57:59.095Z,12.70
2019-05-09T08:00:34.846Z,12.70
2019-05-09T08:03:04.162Z,12.70
2019-05-09T08:05:33.478Z,12.80
2019-05-09T08:08:03.702Z,12.80
2019-05-09T08:10:33.517Z,12.70
2019-05-09T08:13:02.700Z,12.80
2019-05-09T08:15:30.761Z,12.90
2019-05-09T08:17:59.699Z,13.10
2019-05-09T08:20:27.898Z,13.20
2019-05-09T08:23:01.361Z,13.30
2019-05-09T08:25:27.967Z,13.30
2019-05-09T08:27:58.800Z,13.40
2019-05-09T08:30:35.539Z,13.30
2019-05-09T08:32:59.972Z,13.30
2019-05-09T08:35:29.405Z,13.30
2019-05-09T08:37:58.271Z,13.40
2019-05-09T08:40:28.375Z,13.50
2019-05-09T08:42:58.920Z,13.50
2019-05-09T08:45:31.251Z,13.70
2019-05-09T08:47:58.982Z,13.70
2019-05-09T08:50:29.886Z,13.70
2019-05-09T08:52:58.807Z,13.80
2019-05-09T08:55:27.952Z,13.70
2019-05-09T08:57:58.666Z,13.70
2019-05-09T09:00:28.187Z,13.80
2019-05-09T09:02:57.571Z,13.90
2019-05-09T09:05:28.890Z,14.00
2019-05-09T09:07:57.983Z,13.90
2019-05-09T09:10:29.069Z,13.90
2019-05-09T09:12:58.157Z,14.00
2019-05-09T09:15:53.647Z,14.10
2019-05-09T09:17:58.066Z,14.10
2019-05-09T09:20:28.858Z,14.20
2019-05-09T09:22:58.429Z,14.20
2019-05-09T09:25:28.650Z,14.30
2019-05-09T09:27:58.332Z,14.40
2019-05-09T09:30:29.199Z,14.30
2019-05-09T09:32:58.712Z,14.40
2019-05-09T09:35:28.031Z,14.50
2019-05-09T09:37:58.094Z,14.60
2019-05-09T09:40:27.962Z,14.60
2019-05-09T09:42:58.019Z,14.60
2019-05-09T09:45:28.057Z,14.70
2019-05-09T09:47:59.215Z,14.70
2019-05-09T09:50:28.296Z,14.80
2019-05-09T09:52:58.944Z,14.90
2019-05-09T09:55:28.031Z,14.90
2019-05-09T09:57:57.802Z,14.80
2019-05-09T10:00:38.250Z,14.90
2019-05-09T10:03:07.986Z,14.90
2019-05-09T10:05:38.067Z,14.80
2019-05-09T10:08:10.376Z,14.80
2019-05-09T10:10:38.176Z,14.90
2019-05-09T10:13:10.450Z,14.90
2019-05-09T10:15:42.077Z,15.00
2019-05-09T10:18:21.716Z,14.90
2019-05-09T10:20:55.168Z,15.00
2019-05-09T10:23:24.079Z,15.10
2019-05-09T10:25:52.958Z,15.20
2019-05-09T10:28:21.624Z,15.20
2019-05-09T10:30:50.423Z,15.20
2019-05-09T10:33:18.265Z,15.20
2019-05-09T10:35:47.905Z,15.10
2019-05-09T10:38:18.409Z,15.30
2019-05-09T10:40:48.470Z,15.40
2019-05-09T10:43:34.851Z,15.50
2019-05-09T10:46:14.989Z,15.60
2019-05-09T10:48:43.021Z,15.60
2019-05-09T10:51:11.815Z,15.60
2019-05-09T10:53:39.543Z,15.60
2019-05-09T10:56:08.862Z,15.50
2019-05-09T10:58:37.839Z,15.50
2019-05-09T11:01:09.085Z,15.30
2019-05-09T11:03:37.731Z,15.30
2019-05-09T11:06:08.605Z,15.40
2019-05-09T11:08:38.057Z,15.50
2019-05-09T11:11:09.335Z,15.60
2019-05-09T11:13:39.022Z,15.70
2019-05-09T11:16:08.254Z,15.70
2019-05-09T11:18:37.108Z,15.70
2019-05-09T11:21:04.916Z,15.80
2019-05-09T11:23:33.698Z,15.90
2019-05-09T11:26:01.505Z,16.00
2019-05-09T11:28:30.291Z,16.00
2019-05-09T11:30:58.497Z,16.10
2019-05-09T11:33:27.785Z,16.20
2019-05-09T11:35:58.070Z,16.30
2019-05-09T11:38:35.336Z,16.40
2019-05-09T11:40:58.126Z,16.50
2019-05-09T11:43:29.671Z,16.50
2019-05-09T11:45:58.652Z,16.60
2019-05-09T11:48:28.432Z,16.60
2019-05-09T11:50:57.993Z,16.60
2019-05-09T11:53:28.781Z,16.70
2019-05-09T11:55:58.002Z,16.70
2019-05-09T11:58:28.012Z,16.70
2019-05-09T12:00:57.075Z,16.80
2019-05-09T12:03:25.918Z,16.80
2019-05-09T12:05:54.852Z,16.80
2019-05-09T12:08:23.714Z,16.90
2019-05-09T12:10:52.583Z,17.10
2019-05-09T12:13:21.432Z,17.10
2019-05-09T12:15:49.196Z,17.30
2019-05-09T12:18:17.973Z,17.30
2019-05-09T12:20:48.387Z,17.30
2019-05-09T12:23:19.861Z,17.40
2019-05-09T12:25:48.005Z,17.60
2019-05-09T12:28:18.914Z,17.60
2019-05-09T12:30:48.990Z,17.50
2019-05-09T12:33:18.757Z,17.40
2019-05-09T12:35:47.923Z,17.40
2019-05-09T12:38:18.028Z,17.20
2019-05-09T12:40:48.248Z,17.20
2019-05-09T12:43:18.521Z,17.20
2019-05-09T12:45:47.882Z,17.10
2019-05-09T12:48:19.208Z,17.00
2019-05-09T12:50:48.885Z,17.00
2019-05-09T12:53:18.894Z,17.10
2019-05-09T12:55:49.562Z,17.40
2019-05-09T12:58:27.849Z,17.60
2019-05-09T13:00:58.622Z,17.80
2019-05-09T13:03:28.823Z,18.00
2019-05-09T13:05:58.163Z,18.10
2019-05-09T13:08:27.843Z,18.00
2019-05-09T13:10:58.379Z,17.80
2019-05-09T13:13:30.236Z,17.70
2019-05-09T13:16:05.632Z,17.70
2019-05-09T13:18:52.080Z,17.60
2019-05-09T13:21:20.939Z,17.50
2019-05-09T13:23:52.255Z,17.50
2019-05-09T13:26:20.411Z,17.50
2019-05-09T13:28:49.241Z,17.60
2019-05-09T13:31:18.152Z,17.70
2019-05-09T13:33:48.784Z,17.90
2019-05-09T13:36:18.940Z,18.10
2019-05-09T13:39:00.573Z,18.30
2019-05-09T13:41:18.450Z,18.40
2019-05-09T13:43:57.711Z,18.50
2019-05-09T13:46:18.088Z,18.50
2019-05-09T13:49:06.239Z,18.50
2019-05-09T13:51:18.516Z,18.40
2019-05-09T13:53:48.364Z,18.40
2019-05-09T13:56:17.972Z,18.50
2019-05-09T13:58:48.723Z,18.40
2019-05-09T14:01:17.718Z,18.30
2019-05-09T14:03:48.997Z,18.30
2019-05-09T14:06:17.216Z,18.20
2019-05-09T14:08:49.045Z,18.20
2019-05-09T14:11:19.071Z,18.10
2019-05-09T14:13:48.747Z,18.10
2019-05-09T14:16:22.091Z,18.10
2019-05-09T14:18:48.701Z,18.10
2019-05-09T14:21:21.570Z,18.10
2019-05-09T14:24:03.545Z,18.10
2019-05-09T14:26:18.803Z,18.00
2019-05-09T14:28:49.020Z,18.00
2019-05-09T14:31:18.844Z,17.90
2019-05-09T14:33:47.919Z,17.90
2019-05-09T14:36:16.785Z,18.00
2019-05-09T14:38:48.298Z,17.90
2019-05-09T14:41:16.283Z,17.90
2019-05-09T14:43:45.129Z,18.30
2019-05-09T14:46:13.994Z,18.80
2019-05-09T14:48:42.849Z,19.10
2019-05-09T14:51:11.706Z,20.60
2019-05-09T14:53:40.559Z,22.40
2019-05-09T14:56:09.395Z,22.60
2019-05-09T14:58:38.927Z,22.30
2019-05-09T15:01:08.620Z,21.80
2019-05-09T15:03:38.835Z,21.30
2019-05-09T15:06:07.995Z,21.00
2019-05-09T15:08:38.279Z,20.80
2019-05-09T15:11:09.772Z,20.60
2019-05-09T15:13:37.837Z,21.90
2019-05-09T15:16:08.706Z,23.70
2019-05-09T15:18:38.636Z,25.20
2019-05-09T15:21:08.050Z,25.50
2019-05-09T15:23:39.090Z,25.10
2019-05-09T15:26:07.773Z,25.20
2019-05-09T15:28:38.536Z,26.10
2019-05-09T15:31:08.875Z,27.20
2019-05-09T15:33:37.825Z,27.80
2019-05-09T15:36:09.025Z,28.80
2019-05-09T15:38:37.978Z,29.60
2019-05-09T15:41:12.025Z,29.40
2019-05-09T15:43:38.115Z,28.20
2019-05-09T15:46:14.794Z,27.20
2019-05-09T15:48:43.662Z,25.90
2019-05-09T15:51:12.470Z,24.70
2019-05-09T15:53:41.276Z,23.70
2019-05-09T15:56:10.138Z,23.00
2019-05-09T15:58:39.007Z,22.30
2019-05-09T16:01:08.325Z,21.70
2019-05-09T16:03:38.269Z,21.10
2019-05-09T16:06:09.052Z,20.80
2019-05-09T16:08:38.210Z,20.40
2019-05-09T16:11:08.735Z,20.10
2019-05-09T16:13:37.711Z,19.90
2019-05-09T16:16:08.814Z,19.60
2019-05-09T16:18:37.224Z,19.40
2019-05-09T16:21:08.413Z,19.20
2019-05-09T16:23:38.112Z,19.10
2019-05-09T16:26:07.901Z,19.20
2019-05-09T16:28:37.929Z,19.10
2019-05-09T16:31:07.005Z,19.00
2019-05-09T16:33:35.870Z,18.70
2019-05-09T16:36:04.803Z,18.40
2019-05-09T16:38:43.454Z,18.30
2019-05-09T16:41:04.244Z,18.20
2019-05-09T16:43:33.075Z,18.10
2019-05-09T16:46:01.879Z,18.10
2019-05-09T16:48:30.723Z,18.00
2019-05-09T16:51:03.154Z,18.00
2019-05-09T16:53:30.102Z,18.00
2019-05-09T16:55:59.024Z,17.80
2019-05-09T16:58:27.887Z,17.70
2019-05-09T17:00:56.737Z,17.70
2019-05-09T17:03:25.614Z,17.70
2019-05-09T17:05:54.462Z,17.80
2019-05-09T17:08:23.393Z,17.80
2019-05-09T17:10:52.252Z,17.90
2019-05-09T17:13:21.103Z,17.90
2019-05-09T17:15:50.058Z,17.90
2019-05-09T17:18:19.304Z,17.80
2019-05-09T17:20:52.579Z,17.80
2019-05-09T17:23:23.112Z,17.70
2019-05-09T17:25:52.109Z,17.60
2019-05-09T17:28:21.082Z,17.50
2019-05-09T17:30:49.888Z,17.40
2019-05-09T17:33:18.805Z,17.40
2019-05-09T17:35:48.400Z,17.30
2019-05-09T17:38:18.080Z,17.30
2019-05-09T17:40:48.553Z,17.20
2019-05-09T17:43:18.247Z,17.00
2019-05-09T17:45:47.903Z,16.90
2019-05-09T17:48:18.383Z,16.80
2019-05-09T17:50:47.550Z,16.80
2019-05-09T17:53:18.206Z,16.70
2019-05-09T17:55:47.734Z,16.60
2019-05-09T17:58:27.294Z,16.50
2019-05-09T18:00:48.630Z,16.40
2019-05-09T18:03:18.244Z,16.30
2019-05-09T18:05:48.563Z,16.20
2019-05-09T18:08:18.748Z,16.10
2019-05-09T18:10:48.554Z,16.00
2019-05-09T18:13:23.658Z,16.00
2019-05-09T18:15:48.437Z,15.90
2019-05-09T18:18:18.470Z,15.80
2019-05-09T18:20:47.576Z,15.80
2019-05-09T18:23:17.472Z,15.70
2019-05-09T18:25:45.621Z,15.70
2019-05-09T18:28:13.491Z,15.60
2019-05-09T18:30:42.299Z,15.60
2019-05-09T18:33:28.091Z,15.60
2019-05-09T18:35:57.634Z,15.50
2019-05-09T18:38:29.716Z,15.50
2019-05-09T18:40:58.649Z,15.40
2019-05-09T18:43:27.665Z,15.30
2019-05-09T18:45:57.696Z,15.30
2019-05-09T18:48:27.999Z,15.20
2019-05-09T18:50:56.948Z,15.20
2019-05-09T18:53:24.768Z,15.10
2019-05-09T18:55:53.645Z,15.10
2019-05-09T18:58:22.494Z,15.10
2019-05-09T19:00:50.926Z,15.00
2019-05-09T19:03:18.746Z,15.00
2019-05-09T19:05:47.522Z,15.00
2019-05-09T19:08:15.358Z,15.00
2019-05-09T19:10:44.217Z,15.00
2019-05-09T19:13:12.032Z,14.90
2019-05-09T19:15:51.753Z,14.90
2019-05-09T19:18:22.267Z,14.90
2019-05-09T19:20:55.642Z,14.80
2019-05-09T19:23:24.437Z,14.80
2019-05-09T19:25:52.276Z,14.80
2019-05-09T19:28:24.035Z,14.80
2019-05-09T19:30:51.717Z,14.70
2019-05-09T19:33:19.434Z,14.70
2019-05-09T19:35:48.241Z,14.60
2019-05-09T19:38:16.038Z,14.70
2019-05-09T19:40:44.920Z,14.60
2019-05-09T19:43:12.670Z,14.60
2019-05-09T19:45:41.542Z,14.50
2019-05-09T19:48:09.257Z,14.50
2019-05-09T19:50:37.783Z,14.50
2019-05-09T19:53:05.581Z,14.50
2019-05-09T19:55:34.461Z,14.40
2019-05-09T19:58:02.253Z,14.30
2019-05-09T20:00:31.204Z,14.30
2019-05-09T20:02:59.019Z,14.20
2019-05-09T20:05:27.818Z,14.20
2019-05-09T20:07:55.624Z,14.10
2019-05-09T20:10:26.137Z,14.10
2019-05-09T20:13:08.907Z,14.10
2019-05-09T20:15:37.776Z,14.00
2019-05-09T20:18:05.639Z,13.90
2019-05-09T20:20:34.496Z,13.80
2019-05-09T20:23:02.312Z,13.80
2019-05-09T20:25:31.147Z,13.70
2019-05-09T20:27:59.658Z,13.70
2019-05-09T20:30:28.521Z,13.60
2019-05-09T20:32:57.379Z,13.60
2019-05-09T20:35:25.175Z,13.60
2019-05-09T20:37:54.233Z,13.60
2019-05-09T20:40:23.270Z,13.50
2019-05-09T20:42:52.249Z,13.50
2019-05-09T20:45:21.348Z,13.40
2019-05-09T20:47:50.329Z,13.40
2019-05-09T20:50:19.742Z,13.40
2019-05-09T20:52:48.794Z,13.40
2019-05-09T20:55:17.905Z,13.30
2019-05-09T20:57:46.896Z,13.30
2019-05-09T21:00:16.183Z,13.30
2019-05-09T21:02:45.232Z,13.30
2019-05-09T21:05:14.517Z,13.40
2019-05-09T21:07:43.586Z,13.40
2019-05-09T21:10:12.813Z,13.30
2019-05-09T21:12:41.865Z,13.40
2019-05-09T21:15:11.404Z,13.40
2019-05-09T21:17:40.454Z,13.40
2019-05-09T21:20:09.935Z,13.50
2019-05-09T21:22:38.967Z,13.50
2019-05-09T21:25:08.599Z,13.40
2019-05-09T21:27:37.715Z,13.40
2019-05-09T21:30:08.752Z,13.40
2019-05-09T21:32:37.818Z,13.40
2019-05-09T21:35:07.007Z,13.40
2019-05-09T21:37:35.886Z,13.40
2019-05-09T21:40:07.268Z,13.40
2019-05-09T21:42:36.333Z,13.40
2019-05-09T21:45:06.738Z,13.30
2019-05-09T21:47:35.588Z,13.30
2019-05-09T21:50:04.771Z,13.30
2019-05-09T21:52:33.279Z,13.30
2019-05-09T21:55:02.106Z,13.40
2019-05-09T21:57:30.966Z,13.40
2019-05-09T22:00:01.739Z,13.30
2019-05-09T22:02:29.533Z,13.30
2019-05-09T22:04:58.500Z,13.30
2019-05-09T22:07:27.415Z,13.30
2019-05-09T22:09:55.153Z,13.30
2019-05-09T22:12:24.005Z,13.30
2019-05-09T22:14:52.515Z,13.30
2019-05-09T22:17:21.966Z,13.30
2019-05-09T22:19:50.539Z,13.30
2019-05-09T22:22:19.355Z,13.30
2019-05-09T22:24:47.276Z,13.20
2019-05-09T22:27:16.122Z,13.20
2019-05-09T22:29:44.650Z,13.20
2019-05-09T22:32:12.664Z,13.20
2019-05-09T22:34:41.519Z,13.20
2019-05-09T22:37:10.025Z,13.10
2019-05-09T22:39:38.613Z,13.10
2019-05-09T22:42:06.412Z,13.10
2019-05-09T22:44:34.938Z,13.00
2019-05-09T22:47:02.726Z,13.00
2019-05-09T22:49:31.536Z,13.00
2019-05-09T22:51:59.324Z,13.00
2019-05-09T22:54:28.116Z,12.90
2019-05-09T22:56:56.628Z,12.80
2019-05-09T22:59:24.425Z,12.80
2019-05-09T23:01:52.964Z,12.80
2019-05-09T23:04:20.766Z,12.80
2019-05-09T23:06:49.632Z,12.80
2019-05-09T23:09:18.135Z,12.70
2019-05-09T23:11:46.741Z,12.70
2019-05-09T23:14:14.570Z,12.70
2019-05-09T23:16:43.429Z,12.70
2019-05-09T23:19:11.229Z,12.70
2019-05-09T23:21:40.169Z,12.70
2019-05-09T23:24:09.537Z,12.70
2019-05-09T23:26:38.137Z,12.60
2019-05-09T23:29:06.985Z,12.60
2019-05-09T23:31:42.368Z,12.60
2019-05-09T23:34:10.876Z,12.60
2019-05-09T23:36:39.812Z,12.60
2019-05-09T23:39:12.781Z,12.60
2019-05-09T23:41:41.649Z,12.60
2019-05-09T23:44:09.524Z,12.60
2019-05-09T23:46:38.316Z,12.70
2019-05-09T23:49:06.118Z,12.60
2019-05-09T23:51:42.403Z,12.60
2019-05-09T23:54:10.517Z,12.60
2019-05-09T23:56:57.162Z,12.60
2019-05-09T23:59:43.860Z,12.60
